createdAt,value
2022-08-21T00:01:43.925Z,4.00
2022-08-21T00:04:11.450Z,3.55
2022-08-21T00:06:42.136Z,3.75
2022-08-21T00:09:10.217Z,3.28
2022-08-21T00:11:39.749Z,3.65
2022-08-21T00:14:08.852Z,3.80
2022-08-21T00:16:35.823Z,4.05
2022-08-21T00:19:03.049Z,4.13
2022-08-21T00:21:29.937Z,3.47
2022-08-21T00:23:57.411Z,3.92
2022-08-21T00:26:24.425Z,3.55
2022-08-21T00:28:51.617Z,3.50
2022-08-21T00:31:20.043Z,3.50
2022-08-21T00:33:46.968Z,3.60
2022-08-21T00:36:14.298Z,3.17
2022-08-21T00:38:41.580Z,3.28
2022-08-21T00:41:29.869Z,3.20
2022-08-21T00:43:58.335Z,3.47
2022-08-21T00:46:28.450Z,3.35
2022-08-21T00:48:57.311Z,3.47
2022-08-21T00:51:55.192Z,3.58
2022-08-21T00:54:25.659Z,3.08
2022-08-21T00:56:57.146Z,3.38
2022-08-21T00:59:28.668Z,3.17
2022-08-21T01:01:55.523Z,3.30
2022-08-21T01:04:23.747Z,3.08
2022-08-21T01:06:52.417Z,3.10
2022-08-21T01:09:20.923Z,2.80
2022-08-21T01:11:48.464Z,3.45
2022-08-21T01:14:16.200Z,3.55
2022-08-21T01:16:47.027Z,2.72
2022-08-21T01:19:15.688Z,3.03
2022-08-21T01:21:43.916Z,2.67
2022-08-21T01:24:11.988Z,2.78
2022-08-21T01:26:39.006Z,2.35
2022-08-21T01:29:12.877Z,2.80
2022-08-21T01:31:40.239Z,2.50
2022-08-21T01:34:08.357Z,2.58
2022-08-21T01:36:35.781Z,2.65
2022-08-21T01:39:04.025Z,2.60
2022-08-21T01:41:30.816Z,2.67
2022-08-21T01:43:57.706Z,2.75
2022-08-21T01:46:24.557Z,2.63
2022-08-21T01:48:51.434Z,2.33
2022-08-21T01:51:18.591Z,2.72
2022-08-21T01:53:45.466Z,2.67
2022-08-21T01:56:17.439Z,2.50
2022-08-21T01:58:47.230Z,2.47
2022-08-21T02:01:14.958Z,2.55
2022-08-21T02:03:42.830Z,2.55
2022-08-21T02:06:15.814Z,2.50
2022-08-21T02:08:42.640Z,2.38
2022-08-21T02:11:09.492Z,2.75
2022-08-21T02:13:36.321Z,2.70
2022-08-21T02:16:03.477Z,2.42
2022-08-21T02:18:30.737Z,2.58
2022-08-21T02:20:57.731Z,2.83
2022-08-21T02:23:26.916Z,2.90
2022-08-21T02:26:03.044Z,2.70
2022-08-21T02:28:30.866Z,3.13
2022-08-21T02:30:58.214Z,2.85
2022-08-21T02:33:25.803Z,2.80
2022-08-21T02:35:53.922Z,2.60
2022-08-21T02:38:27.376Z,2.50
2022-08-21T02:40:57.880Z,2.72
2022-08-21T02:43:27.604Z,2.78
2022-08-21T02:45:56.279Z,3.15
2022-08-21T02:48:26.320Z,2.22
2022-08-21T02:50:59.870Z,2.30
2022-08-21T02:53:27.565Z,2.47
2022-08-21T02:55:55.542Z,2.55
2022-08-21T02:58:25.776Z,2.17
2022-08-21T03:00:53.571Z,2.38
2022-08-21T03:03:22.118Z,2.22
2022-08-21T03:05:49.479Z,1.98
2022-08-21T03:08:16.591Z,2.15
2022-08-21T03:10:47.970Z,2.13
2022-08-21T03:13:16.368Z,2.10
2022-08-21T03:15:44.132Z,2.42
2022-08-21T03:18:12.439Z,2.15
2022-08-21T03:20:41.044Z,1.90
2022-08-21T03:23:13.334Z,2.40
2022-08-21T03:25:42.576Z,2.17
2022-08-21T03:28:14.658Z,2.20
2022-08-21T03:30:46.132Z,2.42
2022-08-21T03:33:15.474Z,2.63
2022-08-21T03:35:47.959Z,2.65
2022-08-21T03:38:15.141Z,2.50
2022-08-21T03:40:43.627Z,2.60
2022-08-21T03:43:10.894Z,2.78
2022-08-21T03:45:39.222Z,2.88
2022-08-21T03:48:07.815Z,2.47
2022-08-21T03:50:40.606Z,2.80
2022-08-21T03:53:16.994Z,2.85
2022-08-21T03:55:50.297Z,2.58
2022-08-21T03:58:19.065Z,2.80
2022-08-21T04:00:47.704Z,2.97
2022-08-21T04:03:14.558Z,3.15
2022-08-21T04:05:43.018Z,2.80
2022-08-21T04:08:10.253Z,3.40
2022-08-21T04:10:39.101Z,3.00
2022-08-21T04:13:07.262Z,3.25
2022-08-21T04:15:34.835Z,3.03
2022-08-21T04:18:02.205Z,3.03
2022-08-21T04:20:29.565Z,3.20
2022-08-21T04:22:57.286Z,3.22
2022-08-21T04:25:26.392Z,3.10
2022-08-21T04:27:53.740Z,3.40
2022-08-21T04:30:20.713Z,3.20
2022-08-21T04:32:50.153Z,3.22
2022-08-21T04:35:20.852Z,3.17
2022-08-21T04:37:48.455Z,3.05
2022-08-21T04:40:17.939Z,3.55
2022-08-21T04:42:50.984Z,3.58
2022-08-21T04:45:26.019Z,3.28
2022-08-21T04:47:55.439Z,3.50
2022-08-21T04:50:48.644Z,3.53
2022-08-21T04:53:21.511Z,3.10
2022-08-21T04:55:48.933Z,3.35
2022-08-21T04:58:19.934Z,3.22
2022-08-21T05:00:47.911Z,3.40
2022-08-21T05:03:16.566Z,3.33
2022-08-21T05:05:44.286Z,3.47
2022-08-21T05:08:14.738Z,3.58
2022-08-21T05:10:41.717Z,3.65
2022-08-21T05:13:08.579Z,3.72
2022-08-21T05:15:35.381Z,3.60
2022-08-21T05:18:02.195Z,3.72
2022-08-21T05:20:29.943Z,3.80
2022-08-21T05:22:56.965Z,3.50
2022-08-21T05:25:24.095Z,3.28
2022-08-21T05:27:52.057Z,3.40
2022-08-21T05:30:21.231Z,3.70
2022-08-21T05:32:48.816Z,3.80
2022-08-21T05:35:16.126Z,3.72
2022-08-21T05:37:43.117Z,3.47
2022-08-21T05:40:22.600Z,3.53
2022-08-21T05:42:55.537Z,3.03
2022-08-21T05:45:27.903Z,3.00
2022-08-21T05:48:14.600Z,3.88
2022-08-21T05:50:42.413Z,3.25
2022-08-21T05:53:10.755Z,3.58
2022-08-21T05:55:42.703Z,3.13
2022-08-21T05:58:13.373Z,3.53
2022-08-21T06:00:41.794Z,3.10
2022-08-21T06:03:13.750Z,3.50
2022-08-21T06:05:40.623Z,3.72
2022-08-21T06:08:07.371Z,3.40
2022-08-21T06:10:34.401Z,3.63
2022-08-21T06:13:01.534Z,3.63
2022-08-21T06:15:28.345Z,3.90
2022-08-21T06:17:55.333Z,3.92
2022-08-21T06:20:22.828Z,3.35
2022-08-21T06:22:49.695Z,3.65
2022-08-21T06:25:16.564Z,4.10
2022-08-21T06:27:43.438Z,4.10
2022-08-21T06:30:10.727Z,4.07
2022-08-21T06:32:37.592Z,3.95
2022-08-21T06:35:07.073Z,4.32
2022-08-21T06:37:34.232Z,4.25
2022-08-21T06:40:01.073Z,4.10
2022-08-21T06:42:29.031Z,4.22
2022-08-21T06:44:57.500Z,4.82
2022-08-21T06:47:24.334Z,5.03
2022-08-21T06:49:51.222Z,4.82
2022-08-21T06:52:18.157Z,4.53
2022-08-21T06:54:44.990Z,4.40
2022-08-21T06:57:11.773Z,4.88
2022-08-21T06:59:38.620Z,5.18
2022-08-21T07:02:05.464Z,5.53
2022-08-21T07:04:32.343Z,5.35
2022-08-21T07:06:59.361Z,5.85
2022-08-21T07:09:26.191Z,5.40
2022-08-21T07:11:55.861Z,5.45
2022-08-21T07:14:23.302Z,5.63
2022-08-21T07:16:51.695Z,6.03
2022-08-21T07:19:19.104Z,5.60
2022-08-21T07:21:46.397Z,5.78
2022-08-21T07:24:13.547Z,6.10
2022-08-21T07:26:41.063Z,5.50
2022-08-21T07:29:08.015Z,5.57
2022-08-21T07:31:34.770Z,6.10
2022-08-21T07:34:01.603Z,5.78
2022-08-21T07:36:28.515Z,5.22
2022-08-21T07:38:55.494Z,6.00
2022-08-21T07:41:26.273Z,5.88
2022-08-21T07:43:53.832Z,6.07
2022-08-21T07:46:21.213Z,5.97
2022-08-21T07:48:47.991Z,5.43
2022-08-21T07:51:17.514Z,6.15
2022-08-21T07:53:50.899Z,5.22
2022-08-21T07:56:18.067Z,6.20
2022-08-21T07:58:44.817Z,5.82
2022-08-21T08:01:11.724Z,5.60
2022-08-21T08:03:39.921Z,5.50
2022-08-21T08:06:09.557Z,5.88
2022-08-21T08:08:36.373Z,5.50
2022-08-21T08:11:03.263Z,5.43
2022-08-21T08:13:30.184Z,5.82
2022-08-21T08:15:57.285Z,5.57
2022-08-21T08:18:24.088Z,5.32
2022-08-21T08:20:50.860Z,5.07
2022-08-21T08:23:17.671Z,5.75
2022-08-21T08:25:44.628Z,5.63
2022-08-21T08:28:16.754Z,5.50
2022-08-21T08:30:47.796Z,5.65
2022-08-21T08:33:16.098Z,5.88
2022-08-21T08:35:48.671Z,6.20
2022-08-21T08:38:20.901Z,6.38
2022-08-21T08:41:17.333Z,6.55
2022-08-21T08:43:56.599Z,8.00
2022-08-21T08:46:46.167Z,7.65
2022-08-21T08:49:25.016Z,7.63
2022-08-21T08:52:08.013Z,8.35
2022-08-21T08:54:40.874Z,7.63
2022-08-21T08:57:11.822Z,7.68
2022-08-21T08:59:45.599Z,7.57
2022-08-21T09:02:15.636Z,7.00
2022-08-21T09:04:44.495Z,6.50
2022-08-21T09:07:44.471Z,7.20
2022-08-21T09:10:35.320Z,6.57
2022-08-21T09:13:24.987Z,7.05
2022-08-21T09:16:11.904Z,6.95
2022-08-21T09:19:09.115Z,6.95
2022-08-21T09:22:03.515Z,6.72
2022-08-21T09:24:35.805Z,6.95
2022-08-21T09:27:07.076Z,6.78
2022-08-21T09:29:37.921Z,6.32
2022-08-21T09:32:16.619Z,6.53
2022-08-21T09:34:56.374Z,6.50
2022-08-21T09:37:23.119Z,6.30
2022-08-21T09:39:49.975Z,6.43
2022-08-21T09:42:24.738Z,6.25
2022-08-21T09:45:08.767Z,6.05
2022-08-21T09:47:35.650Z,5.93
2022-08-21T09:50:18.652Z,5.60
2022-08-21T09:52:52.323Z,6.05
2022-08-21T09:56:24.309Z,5.78
2022-08-21T09:58:52.654Z,6.28
2022-08-21T10:01:26.120Z,5.35
2022-08-21T10:04:08.962Z,5.70
2022-08-21T10:06:36.033Z,6.03
2022-08-21T10:09:21.009Z,5.97
2022-08-21T10:12:16.975Z,5.70
2022-08-21T10:14:43.814Z,5.90
2022-08-21T10:17:26.944Z,5.20
2022-08-21T10:20:10.410Z,5.60
2022-08-21T10:22:48.889Z,5.57
2022-08-21T10:25:22.158Z,5.20
2022-08-21T10:28:13.534Z,5.70
2022-08-21T10:31:19.384Z,5.15
2022-08-21T10:34:09.486Z,5.60
2022-08-21T10:36:47.955Z,5.28
2022-08-21T10:39:35.945Z,5.53
2022-08-21T10:42:25.977Z,5.30
2022-08-21T10:45:19.826Z,5.10
2022-08-21T10:47:58.019Z,5.25
2022-08-21T10:50:25.205Z,5.50
2022-08-21T10:53:19.596Z,5.35
2022-08-21T10:55:52.455Z,5.50
2022-08-21T10:58:37.861Z,5.55
2022-08-21T11:01:23.884Z,5.10
2022-08-21T11:04:00.229Z,5.65
2022-08-21T11:06:32.555Z,5.00
2022-08-21T11:09:15.132Z,5.40
2022-08-21T11:11:59.580Z,6.18
2022-08-21T11:15:03.161Z,5.10
2022-08-21T11:17:53.689Z,5.55
2022-08-21T11:20:34.037Z,5.45
2022-08-21T11:23:22.504Z,4.90
2022-08-21T11:25:56.052Z,5.30
2022-08-21T11:28:33.990Z,5.28
2022-08-21T11:31:18.262Z,5.43
2022-08-21T11:34:04.349Z,5.40
2022-08-21T11:36:31.188Z,5.72
2022-08-21T11:39:12.031Z,5.07
2022-08-21T11:41:47.820Z,5.18
2022-08-21T11:45:12.698Z,5.28
2022-08-21T11:48:07.963Z,4.85
2022-08-21T11:50:38.322Z,5.22
2022-08-21T11:53:36.021Z,5.35
2022-08-21T11:56:19.795Z,5.70
2022-08-21T11:58:50.826Z,5.75
2022-08-21T12:01:31.711Z,5.35
2022-08-21T12:04:04.348Z,5.40
2022-08-21T12:06:40.658Z,5.45
2022-08-21T12:09:11.205Z,5.15
2022-08-21T12:12:03.717Z,6.20
2022-08-21T12:14:50.695Z,5.78
2022-08-21T12:17:35.161Z,5.70
2022-08-21T12:20:19.379Z,5.40
2022-08-21T12:22:55.475Z,5.75
2022-08-21T12:25:23.532Z,4.95
2022-08-21T12:28:07.322Z,5.50
2022-08-21T12:30:40.243Z,5.13
2022-08-21T12:33:28.895Z,5.45
2022-08-21T12:36:06.313Z,5.10
2022-08-21T12:38:44.393Z,5.07
2022-08-21T12:41:18.199Z,4.75
2022-08-21T12:43:55.092Z,5.28
2022-08-21T12:46:27.436Z,5.03
2022-08-21T12:49:13.529Z,4.70
2022-08-21T12:51:57.837Z,4.75
2022-08-21T12:54:33.617Z,4.75
2022-08-21T12:57:06.953Z,5.03
2022-08-21T12:59:39.098Z,5.13
2022-08-21T13:02:18.958Z,4.35
2022-08-21T13:04:46.978Z,4.80
2022-08-21T13:07:19.043Z,5.05
2022-08-21T13:09:50.719Z,4.35
2022-08-21T13:12:20.680Z,4.53
2022-08-21T13:14:49.521Z,4.65
2022-08-21T13:17:23.677Z,4.20
2022-08-21T13:20:02.096Z,4.07
2022-08-21T13:22:34.561Z,4.45
2022-08-21T13:25:06.993Z,4.25
2022-08-21T13:27:35.166Z,4.30
2022-08-21T13:30:09.837Z,4.40
2022-08-21T13:32:41.419Z,4.15
2022-08-21T13:35:18.713Z,3.92
2022-08-21T13:37:47.859Z,4.00
2022-08-21T13:40:39.916Z,3.38
2022-08-21T13:43:14.334Z,3.95
2022-08-21T13:45:53.692Z,3.47
2022-08-21T13:48:22.188Z,3.40
2022-08-21T13:50:49.339Z,3.50
2022-08-21T13:53:29.119Z,3.67
2022-08-21T13:56:00.505Z,3.60
2022-08-21T13:58:42.600Z,3.63
2022-08-21T14:01:21.646Z,3.72
2022-08-21T14:03:51.416Z,3.50
2022-08-21T14:06:25.055Z,3.38
2022-08-21T14:08:58.872Z,3.10
2022-08-21T14:11:27.208Z,3.00
2022-08-21T14:14:07.134Z,3.15
2022-08-21T14:16:54.026Z,3.40
2022-08-21T14:19:23.392Z,3.00
2022-08-21T14:21:51.098Z,3.17
2022-08-21T14:24:24.302Z,2.92
2022-08-21T14:27:04.805Z,3.58
2022-08-21T14:29:42.092Z,3.25
2022-08-21T14:32:25.105Z,3.20
2022-08-21T14:34:54.941Z,3.10
2022-08-21T14:37:23.205Z,2.92
2022-08-21T14:39:50.771Z,3.15
2022-08-21T14:42:17.585Z,3.03
2022-08-21T14:44:44.475Z,2.90
2022-08-21T14:47:11.667Z,3.30
2022-08-21T14:49:38.684Z,2.80
2022-08-21T14:52:05.535Z,3.22
2022-08-21T14:54:33.509Z,3.00
2022-08-21T14:57:05.851Z,2.78
2022-08-21T14:59:34.067Z,3.00
2022-08-21T15:02:01.600Z,3.10
2022-08-21T15:04:28.697Z,2.80
2022-08-21T15:06:55.559Z,3.13
2022-08-21T15:09:22.709Z,2.78
2022-08-21T15:11:49.557Z,2.53
2022-08-21T15:14:23.832Z,2.70
2022-08-21T15:16:51.943Z,2.60
2022-08-21T15:19:19.115Z,2.78
2022-08-21T15:21:46.078Z,3.00
2022-08-21T15:24:12.860Z,2.47
2022-08-21T15:26:39.729Z,2.80
2022-08-21T15:29:08.292Z,2.95
2022-08-21T15:31:36.051Z,2.83
2022-08-21T15:34:03.705Z,2.60
2022-08-21T15:36:30.544Z,2.78
2022-08-21T15:38:57.363Z,2.40
2022-08-21T15:41:24.177Z,2.92
2022-08-21T15:43:53.973Z,2.72
2022-08-21T15:46:21.749Z,2.70
2022-08-21T15:48:49.073Z,2.80
2022-08-21T15:51:17.856Z,2.60
2022-08-21T15:53:45.650Z,2.92
2022-08-21T15:56:18.355Z,2.70
2022-08-21T15:58:45.173Z,2.75
2022-08-21T16:01:12.099Z,2.53
2022-08-21T16:03:40.033Z,2.85
2022-08-21T16:06:07.032Z,2.60
2022-08-21T16:08:33.820Z,2.47
2022-08-21T16:11:01.252Z,2.38
2022-08-21T16:13:34.769Z,2.75
2022-08-21T16:16:01.783Z,2.80
2022-08-21T16:18:28.915Z,2.83
2022-08-21T16:20:55.744Z,2.60
2022-08-21T16:23:22.591Z,2.40
2022-08-21T16:25:50.287Z,2.60
2022-08-21T16:28:18.994Z,2.45
2022-08-21T16:30:48.793Z,2.47
2022-08-21T16:33:36.037Z,2.78
2022-08-21T16:36:04.754Z,2.72
2022-08-21T16:38:32.612Z,2.70
2022-08-21T16:41:02.267Z,2.40
2022-08-21T16:43:31.862Z,2.90
2022-08-21T16:46:01.225Z,2.78
2022-08-21T16:48:29.746Z,2.58
2022-08-21T16:50:58.204Z,3.03
2022-08-21T16:53:26.662Z,2.47
2022-08-21T16:55:54.060Z,2.70
2022-08-21T16:58:27.036Z,2.45
2022-08-21T17:00:54.460Z,2.35
2022-08-21T17:03:28.613Z,2.58
2022-08-21T17:05:55.495Z,2.20
2022-08-21T17:08:24.869Z,2.55
2022-08-21T17:10:52.237Z,2.63
2022-08-21T17:13:19.478Z,2.80
2022-08-21T17:15:46.588Z,2.60
2022-08-21T17:18:17.190Z,2.72
2022-08-21T17:20:44.299Z,2.45
2022-08-21T17:23:11.363Z,2.80
2022-08-21T17:25:41.240Z,2.38
2022-08-21T17:28:09.761Z,2.60
2022-08-21T17:30:37.983Z,2.67
2022-08-21T17:33:04.811Z,2.30
2022-08-21T17:35:31.955Z,2.20
2022-08-21T17:37:58.887Z,2.67
2022-08-21T17:40:26.576Z,2.70
2022-08-21T17:42:53.559Z,2.45
2022-08-21T17:45:21.001Z,2.53
2022-08-21T17:47:47.897Z,2.63
2022-08-21T17:50:22.882Z,2.50
2022-08-21T17:52:50.070Z,2.58
2022-08-21T17:55:20.238Z,2.97
2022-08-21T17:57:49.274Z,2.90
2022-08-21T18:00:18.994Z,2.80
2022-08-21T18:02:51.155Z,2.88
2022-08-21T18:05:18.201Z,2.50
2022-08-21T18:07:45.093Z,2.70
2022-08-21T18:10:12.448Z,3.20
2022-08-21T18:12:41.467Z,2.70
2022-08-21T18:15:12.490Z,2.60
2022-08-21T18:17:41.942Z,2.75
2022-08-21T18:20:09.191Z,2.80
2022-08-21T18:22:36.047Z,2.75
2022-08-21T18:25:04.492Z,2.53
2022-08-21T18:27:31.679Z,2.50
2022-08-21T18:30:00.484Z,2.85
2022-08-21T18:32:31.660Z,3.33
2022-08-21T18:35:01.301Z,2.70
2022-08-21T18:37:28.642Z,2.55
2022-08-21T18:39:56.037Z,2.63
2022-08-21T18:42:28.538Z,3.03
2022-08-21T18:45:01.242Z,2.58
2022-08-21T18:47:37.073Z,2.63
2022-08-21T18:50:05.840Z,2.78
2022-08-21T18:52:51.445Z,2.75
2022-08-21T18:55:22.556Z,2.45
2022-08-21T18:57:49.683Z,2.70
2022-08-21T19:00:20.389Z,3.05
2022-08-21T19:02:47.507Z,2.80
2022-08-21T19:05:17.481Z,3.05
2022-08-21T19:07:45.674Z,2.72
2022-08-21T19:13:04.158Z,2.95
2022-08-21T19:15:36.724Z,3.00
2022-08-21T19:18:05.170Z,2.80
2022-08-21T19:20:36.767Z,3.10
2022-08-21T19:23:06.757Z,3.08
2022-08-21T19:25:37.565Z,2.78
2022-08-21T19:28:11.436Z,2.95
2022-08-21T19:33:50.723Z,3.20
2022-08-21T19:36:18.502Z,2.90
2022-08-21T19:38:45.873Z,2.95
2022-08-21T19:41:15.561Z,2.80
2022-08-21T19:43:47.637Z,2.70
2022-08-21T19:46:26.040Z,3.42
2022-08-21T19:48:55.353Z,3.05
2022-08-21T19:51:24.845Z,3.00
2022-08-21T19:53:57.107Z,3.05
2022-08-21T19:56:27.410Z,3.17
2022-08-21T19:58:55.938Z,2.90
2022-08-21T20:01:27.196Z,3.40
2022-08-21T20:03:55.480Z,2.95
2022-08-21T20:06:25.237Z,3.05
2022-08-21T20:08:54.859Z,2.83
2022-08-21T20:11:31.267Z,2.92
2022-08-21T20:14:00.646Z,3.17
2022-08-21T20:16:28.924Z,2.67
2022-08-21T20:18:56.408Z,3.13
2022-08-21T20:21:23.300Z,2.85
2022-08-21T20:23:50.253Z,3.03
2022-08-21T20:26:18.846Z,3.22
2022-08-21T20:28:46.550Z,3.40
2022-08-21T20:31:17.739Z,3.55
2022-08-21T20:33:49.014Z,4.05
2022-08-21T20:36:17.362Z,3.40
2022-08-21T20:38:44.653Z,3.03
2022-08-21T20:41:21.381Z,3.58
2022-08-21T20:43:58.569Z,3.25
2022-08-21T20:46:27.518Z,3.28
2022-08-21T20:48:55.496Z,3.20
2022-08-21T20:51:32.025Z,3.42
2022-08-21T20:54:03.278Z,3.03
2022-08-21T20:56:46.147Z,3.13
2022-08-21T20:59:33.835Z,2.90
2022-08-21T21:02:21.106Z,2.92
2022-08-21T21:05:16.685Z,3.10
2022-08-21T21:08:23.900Z,3.00
2022-08-21T21:10:54.992Z,3.22
2022-08-21T21:13:34.426Z,3.45
2022-08-21T21:16:38.920Z,2.97
2022-08-21T21:19:37.328Z,3.00
2022-08-21T21:22:27.234Z,2.80
2022-08-21T21:25:12.811Z,3.20
2022-08-21T21:27:43.357Z,3.35
2022-08-21T21:30:21.938Z,3.08
2022-08-21T21:32:49.498Z,3.30
2022-08-21T21:35:32.243Z,2.83
2022-08-21T21:38:11.644Z,2.90
2022-08-21T21:41:14.687Z,3.05
2022-08-21T21:44:05.879Z,3.00
2022-08-21T21:46:54.289Z,3.08
2022-08-21T21:49:50.543Z,3.28
2022-08-21T21:52:54.645Z,3.03
2022-08-21T21:56:06.860Z,2.90
2022-08-21T21:58:38.927Z,2.90
2022-08-21T22:01:32.435Z,2.75
2022-08-21T22:04:19.486Z,2.78
2022-08-21T22:07:01.385Z,3.00
2022-08-21T22:09:53.496Z,2.80
2022-08-21T22:13:09.741Z,3.03
2022-08-21T22:15:37.849Z,3.10
2022-08-21T22:18:32.725Z,2.95
2022-08-21T22:21:05.337Z,3.10
2022-08-21T22:23:43.988Z,2.78
2022-08-21T22:26:19.653Z,3.20
2022-08-21T22:28:50.697Z,3.28
2022-08-21T22:31:28.240Z,2.97
2022-08-21T22:34:17.818Z,2.95
2022-08-21T22:36:59.734Z,2.97
2022-08-21T22:39:42.955Z,3.00
2022-08-21T22:42:21.075Z,3.47
2022-08-21T22:44:56.329Z,2.92
2022-08-21T22:47:41.374Z,3.10
2022-08-21T22:50:26.924Z,2.80
2022-08-21T22:53:09.357Z,2.87
2022-08-21T22:55:43.648Z,3.00
2022-08-21T22:58:47.336Z,2.83
2022-08-21T23:01:33.470Z,3.10
2022-08-21T23:04:14.152Z,2.90
2022-08-21T23:06:58.417Z,2.97
2022-08-21T23:09:36.425Z,3.10
2022-08-21T23:12:21.297Z,3.13
2022-08-21T23:14:54.590Z,2.80
2022-08-21T23:17:37.508Z,2.70
2022-08-21T23:20:10.222Z,3.03
2022-08-21T23:22:58.853Z,2.75
2022-08-21T23:26:01.953Z,3.00
2022-08-21T23:28:40.800Z,2.92
2022-08-21T23:31:27.030Z,2.58
2022-08-21T23:34:21.880Z,2.92
2022-08-21T23:37:25.955Z,3.10
2022-08-21T23:40:37.122Z,2.58
2022-08-21T23:43:29.216Z,2.85
2022-08-21T23:49:44.015Z,2.58
2022-08-21T23:52:48.453Z,2.83
2022-08-21T23:55:19.902Z,2.60
2022-08-21T23:58:02.998Z,2.85
